createdAt,value
2019-06-27T00:00:05.040Z,19
2019-06-27T00:01:05.094Z,19
2019-06-27T00:02:05.384Z,19
2019-06-27T00:03:04.823Z,19
2019-06-27T00:04:05.231Z,19
2019-06-27T00:05:05.598Z,19
2019-06-27T00:06:04.947Z,19
2019-06-27T00:07:05.219Z,19
2019-06-27T00:08:05.484Z,19
2019-06-27T00:09:04.885Z,19
2019-06-27T00:10:05.418Z,19
2019-06-27T00:11:04.724Z,19
2019-06-27T00:12:04.979Z,19
2019-06-27T00:13:05.312Z,19
2019-06-27T00:14:04.548Z,19
2019-06-27T00:15:04.926Z,19
2019-06-27T00:16:05.278Z,19
2019-06-27T00:17:04.608Z,19
2019-06-27T00:18:04.910Z,19
2019-06-27T00:19:05.226Z,19
2019-06-27T00:20:05.722Z,19
2019-06-27T00:21:04.995Z,19
2019-06-27T00:22:05.289Z,19
2019-06-27T00:23:04.752Z,19
2019-06-27T00:24:05.065Z,19
2019-06-27T00:25:05.495Z,19
2019-06-27T00:26:04.864Z,19
2019-06-27T00:27:05.140Z,19
2019-06-27T00:28:05.516Z,19
2019-06-27T00:29:04.811Z,19
2019-06-27T00:30:05.380Z,20
2019-06-27T00:31:04.699Z,19
2019-06-27T00:32:04.969Z,19
2019-06-27T00:33:05.323Z,19
2019-06-27T00:34:04.665Z,19
2019-06-27T00:35:05.074Z,19
2019-06-27T00:36:05.365Z,19
2019-06-27T00:37:04.652Z,19
2019-06-27T00:38:04.919Z,19
2019-06-27T00:39:05.339Z,19
2019-06-27T00:40:04.909Z,19
2019-06-27T00:41:05.238Z,19
2019-06-27T00:42:05.542Z,19
2019-06-27T00:43:05.075Z,19
2019-06-27T00:44:05.406Z,19
2019-06-27T00:45:04.773Z,19
2019-06-27T00:46:04.783Z,19
2019-06-27T00:47:05.024Z,19
2019-06-27T00:48:05.348Z,19
2019-06-27T00:49:04.701Z,19
2019-06-27T00:50:05.251Z,19
2019-06-27T00:51:04.625Z,19
2019-06-27T00:52:04.919Z,19
2019-06-27T00:53:05.238Z,19
2019-06-27T00:54:05.572Z,19
2019-06-27T00:55:05.041Z,19
2019-06-27T00:56:05.410Z,19
2019-06-27T00:57:15.746Z,19
2019-06-27T00:58:05.035Z,19
2019-06-27T00:59:05.338Z,19
2019-06-27T01:00:04.893Z,19
2019-06-27T01:01:05.017Z,19
2019-06-27T01:02:05.378Z,19
2019-06-27T01:03:04.676Z,19
2019-06-27T01:04:04.998Z,19
2019-06-27T01:05:05.415Z,19
2019-06-27T01:06:04.991Z,19
2019-06-27T01:07:05.247Z,19
2019-06-27T01:08:05.521Z,19
2019-06-27T01:09:04.909Z,20
2019-06-27T01:10:05.447Z,19
2019-06-27T01:11:04.761Z,19
2019-06-27T01:12:05.028Z,19
2019-06-27T01:13:05.325Z,19
2019-06-27T01:14:04.746Z,19
2019-06-27T01:15:05.206Z,19
2019-06-27T01:16:05.483Z,19
2019-06-27T01:17:04.822Z,19
2019-06-27T01:18:05.082Z,19
2019-06-27T01:19:05.489Z,19
2019-06-27T01:20:05.031Z,19
2019-06-27T01:21:05.293Z,19
2019-06-27T01:22:04.583Z,19
2019-06-27T01:23:04.863Z,19
2019-06-27T01:24:05.219Z,19
2019-06-27T01:25:05.677Z,19
2019-06-27T01:26:05.025Z,19
2019-06-27T01:27:05.345Z,19
2019-06-27T01:28:04.582Z,19
2019-06-27T01:29:04.881Z,19
2019-06-27T01:30:05.380Z,19
2019-06-27T01:31:04.684Z,19
2019-06-27T01:32:04.965Z,19
2019-06-27T01:33:05.203Z,19
2019-06-27T01:34:05.527Z,19
2019-06-27T01:35:06.129Z,19
2019-06-27T01:36:05.461Z,19
2019-06-27T01:37:04.746Z,19
2019-06-27T01:38:05.073Z,19
2019-06-27T01:39:05.540Z,19
2019-06-27T01:40:05.183Z,19
2019-06-27T01:41:05.500Z,19
2019-06-27T01:42:04.818Z,19
2019-06-27T01:43:05.158Z,19
2019-06-27T01:44:05.442Z,19
2019-06-27T01:45:04.940Z,19
2019-06-27T01:46:05.303Z,19
2019-06-27T01:47:04.606Z,19
2019-06-27T01:48:04.921Z,19
2019-06-27T01:49:05.255Z,19
2019-06-27T01:50:05.775Z,19
2019-06-27T01:51:05.100Z,19
2019-06-27T01:52:05.413Z,19
2019-06-27T01:53:04.725Z,19
2019-06-27T01:54:05.010Z,19
2019-06-27T01:55:05.448Z,19
2019-06-27T01:56:04.788Z,19
2019-06-27T01:57:05.066Z,19
2019-06-27T01:58:05.355Z,19
2019-06-27T01:59:04.646Z,19
2019-06-27T02:00:05.139Z,19
2019-06-27T02:01:05.211Z,19
2019-06-27T02:02:05.551Z,19
2019-06-27T02:03:04.860Z,19
2019-06-27T02:04:05.258Z,19
2019-06-27T02:05:04.742Z,19
2019-06-27T02:06:05.090Z,19
2019-06-27T02:07:05.377Z,19
2019-06-27T02:08:04.681Z,19
2019-06-27T02:09:05.139Z,19
2019-06-27T02:10:05.691Z,19
2019-06-27T02:11:04.950Z,19
2019-06-27T02:12:05.166Z,19
2019-06-27T02:13:05.431Z,19
2019-06-27T02:14:04.735Z,19
2019-06-27T02:15:05.195Z,19
2019-06-27T02:16:05.485Z,19
2019-06-27T02:17:04.829Z,19
2019-06-27T02:18:05.069Z,19
2019-06-27T02:19:05.359Z,19
2019-06-27T02:20:04.907Z,19
2019-06-27T02:21:05.299Z,19
2019-06-27T02:22:04.595Z,19
2019-06-27T02:23:04.924Z,19
2019-06-27T02:24:05.229Z,19
2019-06-27T02:25:04.735Z,19
2019-06-27T02:26:05.081Z,19
2019-06-27T02:27:05.444Z,19
2019-06-27T02:28:06.188Z,19
2019-06-27T02:29:05.429Z,19
2019-06-27T02:30:05.066Z,19
2019-06-27T02:31:05.521Z,19
2019-06-27T02:32:04.898Z,19
2019-06-27T02:33:05.189Z,19
2019-06-27T02:34:08.792Z,19
2019-06-27T02:35:05.231Z,19
2019-06-27T02:36:04.651Z,19
2019-06-27T02:37:05.011Z,19
2019-06-27T02:38:05.288Z,19
2019-06-27T02:39:04.817Z,19
2019-06-27T02:40:05.469Z,19
2019-06-27T02:41:04.856Z,19
2019-06-27T02:42:05.157Z,19
2019-06-27T02:43:05.472Z,19
2019-06-27T02:44:04.958Z,19
2019-06-27T02:45:05.475Z,19
2019-06-27T02:46:04.897Z,19
2019-06-27T02:47:05.190Z,19
2019-06-27T02:48:05.554Z,19
2019-06-27T02:49:04.875Z,18
2019-06-27T02:50:05.398Z,19
2019-06-27T02:51:04.816Z,19
2019-06-27T02:52:05.196Z,19
2019-06-27T02:53:05.497Z,19
2019-06-27T02:54:04.803Z,19
2019-06-27T02:55:05.259Z,19
2019-06-27T02:56:04.596Z,18
2019-06-27T02:57:04.940Z,19
2019-06-27T02:58:31.493Z,19
2019-06-27T02:59:05.435Z,18
2019-06-27T03:00:04.976Z,18
2019-06-27T03:01:05.066Z,18
2019-06-27T03:02:05.404Z,18
2019-06-27T03:03:04.672Z,19
2019-06-27T03:04:05.062Z,18
2019-06-27T03:05:05.507Z,19
2019-06-27T03:06:04.790Z,18
2019-06-27T03:07:05.175Z,18
2019-06-27T03:08:06.082Z,18
2019-06-27T03:09:05.006Z,18
2019-06-27T03:10:05.588Z,18
2019-06-27T03:11:04.906Z,18
2019-06-27T03:12:05.238Z,18
2019-06-27T03:13:05.496Z,18
2019-06-27T03:14:04.845Z,18
2019-06-27T03:15:05.271Z,19
2019-06-27T03:16:05.578Z,18
2019-06-27T03:17:04.934Z,18
2019-06-27T03:18:05.216Z,18
2019-06-27T03:19:05.489Z,18
2019-06-27T03:20:05.054Z,18
2019-06-27T03:21:05.404Z,18
2019-06-27T03:22:07.644Z,18
2019-06-27T03:23:04.923Z,18
2019-06-27T03:24:05.255Z,18
2019-06-27T03:25:04.725Z,18
2019-06-27T03:26:05.133Z,18
2019-06-27T03:27:05.588Z,18
2019-06-27T03:28:04.883Z,18
2019-06-27T03:29:05.100Z,18
2019-06-27T03:30:05.633Z,18
2019-06-27T03:31:05.365Z,18
2019-06-27T03:32:04.671Z,18
2019-06-27T03:33:05.161Z,18
2019-06-27T03:34:05.519Z,18
2019-06-27T03:35:05.108Z,18
2019-06-27T03:36:04.590Z,18
2019-06-27T03:37:04.983Z,18
2019-06-27T03:38:05.364Z,18
2019-06-27T03:39:04.784Z,18
2019-06-27T03:40:05.298Z,18
2019-06-27T03:41:04.658Z,18
2019-06-27T03:42:04.925Z,18
2019-06-27T03:43:05.315Z,18
2019-06-27T03:44:04.645Z,18
2019-06-27T03:45:05.062Z,18
2019-06-27T03:46:04.752Z,18
2019-06-27T03:47:05.015Z,18
2019-06-27T03:48:05.436Z,18
2019-06-27T03:49:04.732Z,18
2019-06-27T03:50:05.337Z,18
2019-06-27T03:51:04.617Z,18
2019-06-27T03:52:04.898Z,18
2019-06-27T03:53:05.232Z,18
2019-06-27T03:54:05.580Z,18
2019-06-27T03:55:05.046Z,18
2019-06-27T03:56:05.377Z,18
2019-06-27T03:57:04.664Z,18
2019-06-27T03:58:05.114Z,18
2019-06-27T03:59:14.376Z,18
2019-06-27T04:00:05.031Z,18
2019-06-27T04:01:04.980Z,18
2019-06-27T04:02:05.506Z,18
2019-06-27T04:03:04.881Z,18
2019-06-27T04:04:05.225Z,18
2019-06-27T04:05:05.724Z,18
2019-06-27T04:06:05.086Z,18
2019-06-27T04:07:05.393Z,18
2019-06-27T04:08:04.675Z,18
2019-06-27T04:09:05.175Z,18
2019-06-27T04:10:05.710Z,18
2019-06-27T04:11:05.010Z,18
2019-06-27T04:12:05.346Z,18
2019-06-27T04:13:04.704Z,18
2019-06-27T04:14:05.036Z,18
2019-06-27T04:15:05.522Z,18
2019-06-27T04:16:04.820Z,18
2019-06-27T04:17:05.131Z,18
2019-06-27T04:18:05.393Z,18
2019-06-27T04:19:04.639Z,18
2019-06-27T04:20:05.320Z,18
2019-06-27T04:21:04.670Z,18
2019-06-27T04:22:05.042Z,18
2019-06-27T04:23:05.311Z,18
2019-06-27T04:24:04.618Z,18
2019-06-27T04:25:05.172Z,18
2019-06-27T04:26:05.402Z,18
2019-06-27T04:27:04.703Z,18
2019-06-27T04:28:05.242Z,18
2019-06-27T04:29:05.527Z,18
2019-06-27T04:30:05.266Z,18
2019-06-27T04:31:04.695Z,18
2019-06-27T04:32:04.942Z,18
2019-06-27T04:33:05.239Z,18
2019-06-27T04:34:04.567Z,18
2019-06-27T04:35:05.059Z,18
2019-06-27T04:36:05.378Z,18
2019-06-27T04:37:04.677Z,18
2019-06-27T04:38:04.942Z,18
2019-06-27T04:39:05.360Z,18
2019-06-27T04:40:04.975Z,18
2019-06-27T04:41:05.244Z,18
2019-06-27T04:42:05.501Z,18
2019-06-27T04:43:07.667Z,18
2019-06-27T04:44:05.018Z,18
2019-06-27T04:45:05.498Z,18
2019-06-27T04:46:04.834Z,18
2019-06-27T04:47:05.107Z,18
2019-06-27T04:48:05.377Z,19
2019-06-27T04:49:04.675Z,18
2019-06-27T04:50:05.101Z,18
2019-06-27T04:51:05.390Z,18
2019-06-27T04:52:04.662Z,18
2019-06-27T04:53:04.947Z,18
2019-06-27T04:54:05.212Z,18
2019-06-27T04:55:05.858Z,18
2019-06-27T04:56:05.276Z,18
2019-06-27T04:57:05.546Z,18
2019-06-27T04:58:04.860Z,18
2019-06-27T04:59:05.181Z,18
2019-06-27T05:00:05.783Z,18
2019-06-27T05:01:05.130Z,18
2019-06-27T05:02:05.409Z,18
2019-06-27T05:03:04.683Z,18
2019-06-27T05:04:04.983Z,18
2019-06-27T05:05:05.459Z,18
2019-06-27T05:06:04.927Z,18
2019-06-27T05:07:05.372Z,18
2019-06-27T05:08:04.655Z,18
2019-06-27T05:09:05.040Z,18
2019-06-27T05:10:05.769Z,18
2019-06-27T05:11:05.091Z,18
2019-06-27T05:12:05.221Z,18
2019-06-27T05:13:06.096Z,18
2019-06-27T05:14:06.163Z,18
2019-06-27T05:15:04.744Z,18
2019-06-27T05:16:05.475Z,18
2019-06-27T05:17:04.808Z,18
2019-06-27T05:18:05.113Z,18
2019-06-27T05:19:06.586Z,18
2019-06-27T05:20:05.337Z,18
2019-06-27T05:21:04.777Z,18
2019-06-27T05:22:05.055Z,18
2019-06-27T05:23:05.325Z,18
2019-06-27T05:24:04.726Z,18
2019-06-27T05:25:05.254Z,18
2019-06-27T05:26:06.635Z,18
2019-06-27T05:27:04.943Z,18
2019-06-27T05:28:05.489Z,18
2019-06-27T05:29:04.971Z,18
2019-06-27T05:30:11.667Z,18
2019-06-27T05:31:05.494Z,18
2019-06-27T05:32:04.815Z,18
2019-06-27T05:33:05.164Z,18
2019-06-27T05:34:05.443Z,18
2019-06-27T05:35:05.305Z,18
2019-06-27T05:36:04.868Z,18
2019-06-27T05:37:05.158Z,18
2019-06-27T05:38:05.504Z,18
2019-06-27T05:39:04.912Z,18
2019-06-27T05:40:04.805Z,17
2019-06-27T05:41:05.329Z,18
2019-06-27T05:42:04.897Z,18
2019-06-27T05:43:05.189Z,17
2019-06-27T05:44:05.476Z,17
2019-06-27T05:45:05.171Z,17
2019-06-27T05:46:04.691Z,17
2019-06-27T05:47:05.015Z,18
2019-06-27T05:48:05.461Z,18
2019-06-27T05:49:04.795Z,17
2019-06-27T05:50:05.363Z,17
2019-06-27T05:51:04.692Z,17
2019-06-27T05:52:05.026Z,18
2019-06-27T05:53:05.307Z,17
2019-06-27T05:54:04.929Z,17
2019-06-27T05:55:05.462Z,18
2019-06-27T05:56:12.344Z,18
2019-06-27T05:57:04.688Z,18
2019-06-27T05:58:05.025Z,18
2019-06-27T05:59:05.331Z,18
2019-06-27T06:00:04.813Z,18
2019-06-27T06:01:04.917Z,19
2019-06-27T06:02:05.116Z,18
2019-06-27T06:03:05.501Z,17
2019-06-27T06:04:04.877Z,17
2019-06-27T06:05:05.310Z,18
2019-06-27T06:06:05.355Z,17
2019-06-27T06:07:04.648Z,18
2019-06-27T06:08:04.988Z,18
2019-06-27T06:09:05.357Z,18
2019-06-27T06:10:04.919Z,18
2019-06-27T06:11:05.283Z,18
2019-06-27T06:12:04.641Z,18
2019-06-27T06:13:05.888Z,18
2019-06-27T06:14:05.354Z,18
2019-06-27T06:15:04.756Z,18
2019-06-27T06:16:05.097Z,18
2019-06-27T06:17:05.427Z,18
2019-06-27T06:18:04.776Z,18
2019-06-27T06:19:05.145Z,18
2019-06-27T06:20:05.684Z,18
2019-06-27T06:21:04.783Z,18
2019-06-27T06:22:05.309Z,18
2019-06-27T06:23:04.666Z,18
2019-06-27T06:24:04.867Z,18
2019-06-27T06:25:05.231Z,18
2019-06-27T06:26:04.728Z,18
2019-06-27T06:27:05.085Z,18
2019-06-27T06:28:05.475Z,18
2019-06-27T06:29:04.765Z,18
2019-06-27T06:30:06.584Z,18
2019-06-27T06:31:05.003Z,18
2019-06-27T06:32:05.391Z,18
2019-06-27T06:33:04.795Z,18
2019-06-27T06:34:05.001Z,18
2019-06-27T06:35:05.560Z,18
2019-06-27T06:36:05.041Z,18
2019-06-27T06:37:09.732Z,18
2019-06-27T06:38:05.661Z,18
2019-06-27T06:39:05.697Z,18
2019-06-27T06:40:05.899Z,18
2019-06-27T06:41:06.201Z,18
2019-06-27T06:42:07.448Z,18
2019-06-27T06:43:05.820Z,18
2019-06-27T06:44:05.011Z,18
2019-06-27T06:45:05.271Z,18
2019-06-27T06:46:05.437Z,18
2019-06-27T06:47:05.664Z,18
2019-06-27T06:48:06.231Z,18
2019-06-27T06:49:13.072Z,18
2019-06-27T06:50:04.819Z,18
2019-06-27T06:51:05.130Z,18
2019-06-27T06:52:05.734Z,18
2019-06-27T06:53:05.090Z,18
2019-06-27T06:54:05.434Z,18
2019-06-27T06:55:04.871Z,18
2019-06-27T06:56:05.213Z,18
2019-06-27T06:57:05.505Z,18
2019-06-27T06:58:04.930Z,18
2019-06-27T06:59:05.332Z,18
2019-06-27T07:00:05.298Z,18
2019-06-27T07:01:04.699Z,18
2019-06-27T07:02:05.033Z,18
2019-06-27T07:03:05.445Z,18
2019-06-27T07:04:04.837Z,18
2019-06-27T07:05:05.405Z,18
2019-06-27T07:06:04.734Z,18
2019-06-27T07:07:05.038Z,18
2019-06-27T07:08:05.791Z,18
2019-06-27T07:09:05.358Z,18
2019-06-27T07:10:05.115Z,18
2019-06-27T07:11:04.802Z,18
2019-06-27T07:12:05.186Z,18
2019-06-27T07:13:05.458Z,18
2019-06-27T07:14:04.832Z,18
2019-06-27T07:15:05.359Z,18
2019-06-27T07:16:04.717Z,18
2019-06-27T07:17:05.026Z,18
2019-06-27T07:18:05.467Z,18
2019-06-27T07:19:05.012Z,18
2019-06-27T07:20:05.915Z,18
2019-06-27T07:21:05.336Z,18
2019-06-27T07:22:04.621Z,18
2019-06-27T07:23:04.908Z,18
2019-06-27T07:24:05.758Z,18
2019-06-27T07:25:05.842Z,18
2019-06-27T07:26:05.436Z,18
2019-06-27T07:27:04.846Z,18
2019-06-27T07:28:05.200Z,18
2019-06-27T07:29:05.524Z,18
2019-06-27T07:30:05.254Z,18
2019-06-27T07:31:18.841Z,18
2019-06-27T07:32:05.093Z,18
2019-06-27T07:33:04.681Z,18
2019-06-27T07:34:04.979Z,18
2019-06-27T07:35:05.467Z,18
2019-06-27T07:36:04.780Z,18
2019-06-27T07:37:05.015Z,18
2019-06-27T07:38:05.345Z,18
2019-06-27T07:39:04.759Z,18
2019-06-27T07:40:05.325Z,18
2019-06-27T07:41:04.897Z,18
2019-06-27T07:42:05.284Z,18
2019-06-27T07:43:05.521Z,18
2019-06-27T07:44:04.858Z,18
2019-06-27T07:45:05.325Z,18
2019-06-27T07:46:05.214Z,18
2019-06-27T07:47:04.930Z,18
2019-06-27T07:48:05.179Z,18
2019-06-27T07:49:05.444Z,18
2019-06-27T07:50:05.198Z,18
2019-06-27T07:51:05.476Z,18
2019-06-27T07:52:05.017Z,18
2019-06-27T07:53:05.321Z,18
2019-06-27T07:54:04.714Z,18
2019-06-27T07:55:05.163Z,18
2019-06-27T07:56:05.557Z,18
2019-06-27T07:57:04.997Z,18
2019-06-27T07:58:04.694Z,18
2019-06-27T07:59:04.989Z,18
2019-06-27T08:00:05.638Z,18
2019-06-27T08:01:05.403Z,18
2019-06-27T08:02:04.717Z,18
2019-06-27T08:03:05.033Z,18
2019-06-27T08:04:05.374Z,18
2019-06-27T08:05:04.801Z,18
2019-06-27T08:06:04.839Z,18
2019-06-27T08:07:05.160Z,18
2019-06-27T08:08:05.448Z,18
2019-06-27T08:09:04.933Z,18
2019-06-27T08:10:05.638Z,18
2019-06-27T08:11:04.978Z,18
2019-06-27T08:12:05.289Z,18
2019-06-27T08:13:05.569Z,18
2019-06-27T08:14:04.821Z,19
2019-06-27T08:15:05.281Z,18
2019-06-27T08:16:04.702Z,18
2019-06-27T08:17:05.023Z,19
2019-06-27T08:18:05.369Z,19
2019-06-27T08:19:04.632Z,19
2019-06-27T08:20:05.252Z,18
2019-06-27T08:21:04.705Z,19
2019-06-27T08:22:05.241Z,19
2019-06-27T08:23:04.919Z,19
2019-06-27T08:24:05.235Z,19
2019-06-27T08:25:05.732Z,19
2019-06-27T08:26:05.125Z,19
2019-06-27T08:27:05.487Z,19
2019-06-27T08:28:04.855Z,19
2019-06-27T08:29:05.261Z,19
2019-06-27T08:30:08.177Z,19
2019-06-27T08:31:04.827Z,19
2019-06-27T08:32:05.174Z,19
2019-06-27T08:33:05.401Z,19
2019-06-27T08:34:04.694Z,19
2019-06-27T08:35:05.137Z,19
2019-06-27T08:36:05.439Z,19
2019-06-27T08:37:04.816Z,19
2019-06-27T08:38:05.094Z,19
2019-06-27T08:39:05.568Z,19
2019-06-27T08:40:05.089Z,19
2019-06-27T08:41:05.496Z,19
2019-06-27T08:42:05.527Z,19
2019-06-27T08:43:04.825Z,19
2019-06-27T08:44:05.111Z,19
2019-06-27T08:45:05.487Z,19
2019-06-27T08:46:09.470Z,19
2019-06-27T08:47:10.466Z,20
2019-06-27T08:48:10.006Z,20
2019-06-27T08:49:10.201Z,20
2019-06-27T08:50:30.048Z,20
2019-06-27T08:51:29.234Z,20
2019-06-27T08:52:04.777Z,19
2019-06-27T08:53:05.016Z,20
2019-06-27T08:54:05.243Z,20
2019-06-27T08:55:05.704Z,19
2019-06-27T08:56:05.028Z,20
2019-06-27T08:57:05.561Z,20
2019-06-27T08:58:05.454Z,20
2019-06-27T08:59:05.166Z,20
2019-06-27T09:00:05.020Z,20
2019-06-27T09:01:05.023Z,20
2019-06-27T09:02:10.833Z,20
2019-06-27T09:03:05.534Z,20
2019-06-27T09:04:05.532Z,20
2019-06-27T09:05:04.994Z,20
2019-06-27T09:06:04.745Z,20
2019-06-27T09:07:05.062Z,20
2019-06-27T09:08:05.368Z,20
2019-06-27T09:09:05.291Z,20
2019-06-27T09:10:05.838Z,20
2019-06-27T09:11:05.403Z,20
2019-06-27T09:12:05.313Z,20
2019-06-27T09:13:05.079Z,20
2019-06-27T09:14:04.918Z,20
2019-06-27T09:15:05.419Z,20
2019-06-27T09:16:04.931Z,20
2019-06-27T09:17:05.230Z,20
2019-06-27T09:18:05.555Z,20
2019-06-27T09:19:04.842Z,20
2019-06-27T09:20:05.489Z,20
2019-06-27T09:21:05.375Z,20
2019-06-27T09:22:04.858Z,20
2019-06-27T09:23:05.449Z,20
2019-06-27T09:24:04.959Z,20
2019-06-27T09:25:05.599Z,20
2019-06-27T09:26:05.054Z,20
2019-06-27T09:27:05.546Z,20
2019-06-27T09:28:05.300Z,20
2019-06-27T09:29:04.610Z,20
2019-06-27T09:30:05.337Z,20
2019-06-27T09:31:04.810Z,20
2019-06-27T09:32:05.097Z,20
2019-06-27T09:33:05.232Z,20
2019-06-27T09:34:05.507Z,20
2019-06-27T09:35:04.923Z,20
2019-06-27T09:36:05.262Z,20
2019-06-27T09:37:05.561Z,20
2019-06-27T09:38:04.916Z,21
2019-06-27T09:39:05.339Z,21
2019-06-27T09:40:04.884Z,20
2019-06-27T09:41:05.208Z,21
2019-06-27T09:42:05.436Z,20
2019-06-27T09:43:04.765Z,21
2019-06-27T09:44:05.077Z,21
2019-06-27T09:45:05.470Z,20
2019-06-27T09:46:04.796Z,20
2019-06-27T09:47:05.126Z,20
2019-06-27T09:48:05.473Z,21
2019-06-27T09:49:04.805Z,21
2019-06-27T09:50:05.334Z,21
2019-06-27T09:51:04.836Z,21
2019-06-27T09:52:05.107Z,21
2019-06-27T09:53:05.426Z,20
2019-06-27T09:54:04.800Z,21
2019-06-27T09:55:05.171Z,21
2019-06-27T09:56:05.502Z,21
2019-06-27T09:57:04.823Z,21
2019-06-27T09:58:05.235Z,21
2019-06-27T09:59:05.505Z,21
2019-06-27T10:00:05.034Z,21
2019-06-27T10:01:07.868Z,21
2019-06-27T10:02:05.232Z,21
2019-06-27T10:03:05.573Z,21
2019-06-27T10:04:04.853Z,21
2019-06-27T10:05:05.482Z,21
2019-06-27T10:06:04.820Z,21
2019-06-27T10:07:05.186Z,21
2019-06-27T10:08:05.509Z,21
2019-06-27T10:09:05.035Z,21
2019-06-27T10:10:05.601Z,21
2019-06-27T10:11:04.961Z,21
2019-06-27T10:12:05.233Z,21
2019-06-27T10:13:05.510Z,21
2019-06-27T10:14:04.884Z,21
2019-06-27T10:15:05.320Z,21
2019-06-27T10:16:04.704Z,21
2019-06-27T10:17:05.009Z,21
2019-06-27T10:18:05.293Z,21
2019-06-27T10:19:04.684Z,21
2019-06-27T10:20:05.138Z,21
2019-06-27T10:21:05.469Z,21
2019-06-27T10:22:04.766Z,21
2019-06-27T10:23:05.123Z,21
2019-06-27T10:24:05.579Z,21
2019-06-27T10:25:05.036Z,21
2019-06-27T10:26:05.357Z,21
2019-06-27T10:27:04.673Z,21
2019-06-27T10:28:04.965Z,21
2019-06-27T10:29:05.294Z,21
2019-06-27T10:30:05.793Z,21
2019-06-27T10:31:05.288Z,21
2019-06-27T10:32:04.605Z,21
2019-06-27T10:33:04.884Z,21
2019-06-27T10:34:05.296Z,21
2019-06-27T10:35:04.723Z,21
2019-06-27T10:36:04.830Z,21
2019-06-27T10:37:05.204Z,21
2019-06-27T10:38:05.489Z,22
2019-06-27T10:39:04.915Z,21
2019-06-27T10:40:05.845Z,22
2019-06-27T10:41:05.184Z,21
2019-06-27T10:42:05.520Z,21
2019-06-27T10:43:04.829Z,22
2019-06-27T10:44:05.172Z,21
2019-06-27T10:45:05.578Z,22
2019-06-27T10:46:04.897Z,22
2019-06-27T10:47:05.186Z,22
2019-06-27T10:48:05.631Z,22
2019-06-27T10:49:04.904Z,22
2019-06-27T10:50:05.555Z,22
2019-06-27T10:51:04.855Z,22
2019-06-27T10:52:05.169Z,22
2019-06-27T10:53:05.475Z,22
2019-06-27T10:54:04.953Z,22
2019-06-27T10:55:05.404Z,22
2019-06-27T10:56:04.742Z,22
2019-06-27T10:57:05.059Z,22
2019-06-27T10:58:05.425Z,22
2019-06-27T10:59:04.708Z,23
2019-06-27T11:00:05.436Z,23
2019-06-27T11:01:05.006Z,23
2019-06-27T11:02:05.402Z,23
2019-06-27T11:03:16.715Z,23
2019-06-27T11:04:05.087Z,23
2019-06-27T11:05:05.532Z,23
2019-06-27T11:06:04.918Z,23
2019-06-27T11:07:05.210Z,23
2019-06-27T11:08:05.471Z,23
2019-06-27T11:09:04.957Z,23
2019-06-27T11:10:05.516Z,23
2019-06-27T11:11:04.817Z,23
2019-06-27T11:12:05.156Z,23
2019-06-27T11:13:05.449Z,23
2019-06-27T11:14:04.779Z,24
2019-06-27T11:15:05.299Z,24
2019-06-27T11:16:04.717Z,24
2019-06-27T11:17:05.249Z,24
2019-06-27T11:18:05.565Z,24
2019-06-27T11:19:04.808Z,23
2019-06-27T11:20:05.659Z,24
2019-06-27T11:21:05.070Z,24
2019-06-27T11:22:05.404Z,24
2019-06-27T11:23:04.721Z,24
2019-06-27T11:24:05.148Z,24
2019-06-27T11:25:05.629Z,24
2019-06-27T11:26:04.988Z,24
2019-06-27T11:27:05.598Z,24
2019-06-27T11:28:04.907Z,24
2019-06-27T11:29:04.987Z,24
2019-06-27T11:30:06.117Z,24
2019-06-27T11:31:04.800Z,24
2019-06-27T11:32:05.252Z,24
2019-06-27T11:33:05.584Z,24
2019-06-27T11:34:04.894Z,24
2019-06-27T11:35:05.418Z,24
2019-06-27T11:36:04.985Z,24
2019-06-27T11:37:05.258Z,24
2019-06-27T11:38:04.616Z,24
2019-06-27T11:39:04.972Z,24
2019-06-27T11:40:05.510Z,24
2019-06-27T11:41:04.612Z,24
2019-06-27T11:42:04.935Z,24
2019-06-27T11:43:05.296Z,24
2019-06-27T11:44:04.585Z,24
2019-06-27T11:45:05.019Z,24
2019-06-27T11:46:08.490Z,24
2019-06-27T11:47:05.094Z,24
2019-06-27T11:48:05.450Z,24
2019-06-27T11:49:04.817Z,24
2019-06-27T11:50:05.778Z,24
2019-06-27T11:51:05.489Z,24
2019-06-27T11:52:04.794Z,24
2019-06-27T11:53:05.244Z,24
2019-06-27T11:54:05.478Z,24
2019-06-27T11:55:05.040Z,24
2019-06-27T11:56:05.302Z,24
2019-06-27T11:57:04.652Z,24
2019-06-27T11:58:04.974Z,24
2019-06-27T11:59:05.272Z,24
2019-06-27T12:00:04.837Z,24
2019-06-27T12:01:04.976Z,24
2019-06-27T12:02:05.284Z,24
2019-06-27T12:03:04.617Z,24
2019-06-27T12:04:04.868Z,24
2019-06-27T12:05:05.530Z,24
2019-06-27T12:06:04.832Z,24
2019-06-27T12:07:05.128Z,24
2019-06-27T12:08:05.378Z,24
2019-06-27T12:09:05.069Z,24
2019-06-27T12:10:05.651Z,24
2019-06-27T12:11:05.055Z,24
2019-06-27T12:12:05.400Z,24
2019-06-27T12:13:04.715Z,24
2019-06-27T12:14:05.065Z,24
2019-06-27T12:15:05.519Z,24
2019-06-27T12:16:04.848Z,25
2019-06-27T12:17:05.222Z,25
2019-06-27T12:18:05.527Z,24
2019-06-27T12:19:04.840Z,25
2019-06-27T12:20:05.444Z,25
2019-06-27T12:21:07.940Z,25
2019-06-27T12:22:05.306Z,25
2019-06-27T12:23:04.597Z,25
2019-06-27T12:24:04.931Z,25
2019-06-27T12:25:05.368Z,25
2019-06-27T12:26:04.952Z,24
2019-06-27T12:27:05.330Z,25
2019-06-27T12:28:04.649Z,25
2019-06-27T12:29:04.943Z,27
2019-06-27T12:30:05.655Z,24
2019-06-27T12:31:21.698Z,25
2019-06-27T12:32:05.029Z,25
2019-06-27T12:33:05.340Z,25
2019-06-27T12:34:09.167Z,25
2019-06-27T12:35:05.623Z,25
2019-06-27T12:36:06.192Z,24
2019-06-27T12:37:05.215Z,25
2019-06-27T12:38:05.170Z,25
2019-06-27T12:39:05.554Z,25
2019-06-27T12:40:05.102Z,25
2019-06-27T12:41:05.460Z,25
2019-06-27T12:42:04.768Z,25
2019-06-27T12:43:05.042Z,25
2019-06-27T12:44:05.299Z,25
2019-06-27T12:45:04.737Z,25
2019-06-27T12:46:05.228Z,25
2019-06-27T12:47:04.776Z,25
2019-06-27T12:48:08.918Z,25
2019-06-27T12:49:05.220Z,25
2019-06-27T12:50:05.850Z,25
2019-06-27T12:51:05.387Z,25
2019-06-27T12:52:04.733Z,25
2019-06-27T12:53:05.044Z,25
2019-06-27T12:54:05.329Z,25
2019-06-27T12:55:04.949Z,25
2019-06-27T12:56:04.914Z,25
2019-06-27T12:57:05.748Z,25
2019-06-27T12:58:05.670Z,25
2019-06-27T12:59:05.296Z,25
2019-06-27T13:00:08.437Z,25
2019-06-27T13:01:05.553Z,25
2019-06-27T13:02:05.081Z,25
2019-06-27T13:03:05.291Z,25
2019-06-27T13:04:04.556Z,25
2019-06-27T13:05:05.100Z,25
2019-06-27T13:06:04.878Z,25
2019-06-27T13:07:05.846Z,25
2019-06-27T13:08:04.990Z,25
2019-06-27T13:09:05.166Z,25
2019-06-27T13:10:05.402Z,25
2019-06-27T13:11:05.409Z,25
2019-06-27T13:12:05.261Z,25
2019-06-27T13:13:05.324Z,25
2019-06-27T13:14:04.660Z,25
2019-06-27T13:15:11.379Z,25
2019-06-27T13:16:05.025Z,25
2019-06-27T13:17:04.945Z,25
2019-06-27T13:18:05.039Z,25
2019-06-27T13:19:05.108Z,25
2019-06-27T13:20:05.341Z,25
2019-06-27T13:21:05.388Z,25
2019-06-27T13:22:05.473Z,25
2019-06-27T13:23:05.664Z,25
2019-06-27T13:24:05.692Z,25
2019-06-27T13:25:05.766Z,25
2019-06-27T13:26:04.857Z,25
2019-06-27T13:27:04.965Z,25
2019-06-27T13:28:04.961Z,25
2019-06-27T13:29:04.783Z,25
2019-06-27T13:30:06.007Z,25
2019-06-27T13:31:05.408Z,25
2019-06-27T13:32:05.682Z,25
2019-06-27T13:33:05.615Z,25
2019-06-27T13:34:05.542Z,25
2019-06-27T13:35:05.639Z,25
2019-06-27T13:36:05.600Z,25
2019-06-27T13:37:05.194Z,25
2019-06-27T13:38:05.722Z,25
2019-06-27T13:39:07.940Z,25
2019-06-27T13:40:06.517Z,25
2019-06-27T13:41:04.953Z,24
2019-06-27T13:42:05.246Z,24
2019-06-27T13:43:04.932Z,25
2019-06-27T13:44:04.938Z,25
2019-06-27T13:45:05.651Z,25
2019-06-27T13:46:04.973Z,25
2019-06-27T13:47:05.326Z,25
2019-06-27T13:48:04.560Z,25
2019-06-27T13:49:04.979Z,25
2019-06-27T13:50:05.509Z,25
2019-06-27T13:51:04.983Z,25
2019-06-27T13:52:05.271Z,25
2019-06-27T13:53:04.619Z,25
2019-06-27T13:54:05.027Z,25
2019-06-27T13:55:05.491Z,25
2019-06-27T13:56:04.898Z,25
2019-06-27T13:57:05.193Z,25
2019-06-27T13:58:05.469Z,25
2019-06-27T13:59:04.818Z,25
2019-06-27T14:00:05.384Z,25
2019-06-27T14:01:04.857Z,25
2019-06-27T14:02:04.678Z,25
2019-06-27T14:03:04.973Z,25
2019-06-27T14:04:05.287Z,25
2019-06-27T14:05:04.720Z,25
2019-06-27T14:06:05.174Z,25
2019-06-27T14:07:05.468Z,26
2019-06-27T14:08:04.993Z,25
2019-06-27T14:09:05.618Z,25
2019-06-27T14:10:05.128Z,25
2019-06-27T14:11:04.925Z,25
2019-06-27T14:12:05.209Z,25
2019-06-27T14:13:05.515Z,25
2019-06-27T14:14:04.853Z,25
2019-06-27T14:15:05.301Z,25